Terminal Aerodrome Forecast
Issued by NWS Atlanta, GA

Current Version | Previous Version | Text Only | Print | Product List | Glossary On
Versions: 1 2 3 4 5 6 7 8 9 10 11 12 13 14
010
FTUS42 KFFC 301727
TAFMCN
TAF
KMCN 301727Z 3018/0118 26007KT P6SM FEW050
     FM010200 31003KT P6SM SKC
     FM011700 29004KT P6SM FEW050=

USA.gov is the U.S. government's official web portal to all federal, state and local government web resources and services.